sensor_id;sensor_type;location;lat;lon;timestamp;temperature;humidity
76263;DHT22;65080;50.908;6.916;2023-03-01T00:01:21;3.60;45.60
76263;DHT22;65080;50.908;6.916;2023-03-01T00:03:50;3.50;45.60
76263;DHT22;65080;50.908;6.916;2023-03-01T00:06:19;3.50;45.60
76263;DHT22;65080;50.908;6.916;2023-03-01T00:08:48;3.40;45.70
76263;DHT22;65080;50.908;6.916;2023-03-01T00:11:19;3.30;45.80
76263;DHT22;65080;50.908;6.916;2023-03-01T00:13:50;3.30;45.90
76263;DHT22;65080;50.908;6.916;2023-03-01T00:16:21;3.20;45.90
76263;DHT22;65080;50.908;6.916;2023-03-01T00:18:50;3.20;46.10
76263;DHT22;65080;50.908;6.916;2023-03-01T00:21:19;3.10;46.30
76263;DHT22;65080;50.908;6.916;2023-03-01T00:23:48;3.00;46.20
76263;DHT22;65080;50.908;6.916;2023-03-01T00:26:18;3.00;46.40
76263;DHT22;65080;50.908;6.916;2023-03-01T00:28:47;3.00;46.50
76263;DHT22;65080;50.908;6.916;2023-03-01T00:31:19;2.90;46.50
76263;DHT22;65080;50.908;6.916;2023-03-01T00:33:48;2.80;46.40
76263;DHT22;65080;50.908;6.916;2023-03-01T00:36:16;2.80;46.50
76263;DHT22;65080;50.908;6.916;2023-03-01T00:38:45;2.70;46.60
76263;DHT22;65080;50.908;6.916;2023-03-01T00:41:15;2.70;46.70
76263;DHT22;65080;50.908;6.916;2023-03-01T00:43:44;2.60;46.80
76263;DHT22;65080;50.908;6.916;2023-03-01T00:46:15;2.60;46.90
76263;DHT22;65080;50.908;6.916;2023-03-01T00:48:45;2.60;47.00
76263;DHT22;65080;50.908;6.916;2023-03-01T00:51:15;2.60;47.20
76263;DHT22;65080;50.908;6.916;2023-03-01T00:53:44;2.50;47.20
76263;DHT22;65080;50.908;6.916;2023-03-01T00:56:14;2.50;47.30
76263;DHT22;65080;50.908;6.916;2023-03-01T00:58:42;2.50;47.40
76263;DHT22;65080;50.908;6.916;2023-03-01T01:01:12;2.50;47.50
76263;DHT22;65080;50.908;6.916;2023-03-01T01:03:48;2.40;47.50
76263;DHT22;65080;50.908;6.916;2023-03-01T01:06:19;2.40;47.60
76263;DHT22;65080;50.908;6.916;2023-03-01T01:08:48;2.30;47.60
76263;DHT22;65080;50.908;6.916;2023-03-01T01:11:18;2.30;47.70
76263;DHT22;65080;50.908;6.916;2023-03-01T01:13:47;2.20;47.70
76263;DHT22;65080;50.908;6.916;2023-03-01T01:16:17;2.20;47.90
76263;DHT22;65080;50.908;6.916;2023-03-01T01:18:46;2.20;48.00
76263;DHT22;65080;50.908;6.916;2023-03-01T01:21:16;2.10;48.10
76263;DHT22;65080;50.908;6.916;2023-03-01T01:23:46;2.10;48.20
76263;DHT22;65080;50.908;6.916;2023-03-01T01:26:16;2.00;48.30
76263;DHT22;65080;50.908;6.916;2023-03-01T01:28:46;2.00;48.40
76263;DHT22;65080;50.908;6.916;2023-03-01T01:31:15;2.10;48.50
76263;DHT22;65080;50.908;6.916;2023-03-01T01:33:43;2.00;48.50
76263;DHT22;65080;50.908;6.916;2023-03-01T01:36:13;2.00;48.60
76263;DHT22;65080;50.908;6.916;2023-03-01T01:38:41;2.00;48.80
76263;DHT22;65080;50.908;6.916;2023-03-01T01:41:12;2.00;48.90
76263;DHT22;65080;50.908;6.916;2023-03-01T01:43:42;1.90;49.00
76263;DHT22;65080;50.908;6.916;2023-03-01T01:46:19;1.90;49.60
76263;DHT22;65080;50.908;6.916;2023-03-01T01:48:53;2.00;49.20
76263;DHT22;65080;50.908;6.916;2023-03-01T01:51:28;1.90;49.10
76263;DHT22;65080;50.908;6.916;2023-03-01T01:54:09;1.90;49.10
76263;DHT22;65080;50.908;6.916;2023-03-01T01:56:40;1.90;49.20
76263;DHT22;65080;50.908;6.916;2023-03-01T01:59:09;1.90;49.40
76263;DHT22;65080;50.908;6.916;2023-03-01T02:01:38;1.90;49.50
76263;DHT22;65080;50.908;6.916;2023-03-01T02:04:06;1.90;49.50
76263;DHT22;65080;50.908;6.916;2023-03-01T02:06:38;1.90;49.70
76263;DHT22;65080;50.908;6.916;2023-03-01T02:09:12;1.90;49.70
76263;DHT22;65080;50.908;6.916;2023-03-01T02:11:41;1.90;49.70
76263;DHT22;65080;50.908;6.916;2023-03-01T02:14:11;1.90;49.80
76263;DHT22;65080;50.908;6.916;2023-03-01T02:16:39;1.90;49.80
76263;DHT22;65080;50.908;6.916;2023-03-01T02:19:11;1.90;49.80
76263;DHT22;65080;50.908;6.916;2023-03-01T02:21:48;2.00;49.90
76263;DHT22;65080;50.908;6.916;2023-03-01T02:24:26;2.00;49.90
76263;DHT22;65080;50.908;6.916;2023-03-01T02:26:58;2.00;50.00
76263;DHT22;65080;50.908;6.916;2023-03-01T02:29:29;2.00;49.90
76263;DHT22;65080;50.908;6.916;2023-03-01T02:32:00;2.00;50.00
76263;DHT22;65080;50.908;6.916;2023-03-01T02:34:31;2.10;50.10
76263;DHT22;65080;50.908;6.916;2023-03-01T02:37:02;2.10;50.10
76263;DHT22;65080;50.908;6.916;2023-03-01T02:39:34;2.00;50.00
76263;DHT22;65080;50.908;6.916;2023-03-01T02:42:05;2.00;50.10
76263;DHT22;65080;50.908;6.916;2023-03-01T02:44:35;1.90;49.90
76263;DHT22;65080;50.908;6.916;2023-03-01T02:47:04;1.90;50.00
76263;DHT22;65080;50.908;6.916;2023-03-01T02:49:34;1.90;50.00
76263;DHT22;65080;50.908;6.916;2023-03-01T02:52:27;1.80;50.10
76263;DHT22;65080;50.908;6.916;2023-03-01T02:55:01;1.70;50.20
76263;DHT22;65080;50.908;6.916;2023-03-01T02:57:34;1.70;50.10
76263;DHT22;65080;50.908;6.916;2023-03-01T03:00:06;1.70;50.10
76263;DHT22;65080;50.908;6.916;2023-03-01T03:02:35;1.60;50.20
76263;DHT22;65080;50.908;6.916;2023-03-01T03:05:06;1.60;50.30
76263;DHT22;65080;50.908;6.916;2023-03-01T03:07:36;1.60;50.30
76263;DHT22;65080;50.908;6.916;2023-03-01T03:10:07;1.50;50.30
76263;DHT22;65080;50.908;6.916;2023-03-01T03:12:37;1.50;50.50
76263;DHT22;65080;50.908;6.916;2023-03-01T03:15:07;1.50;50.60
76263;DHT22;65080;50.908;6.916;2023-03-01T03:17:37;1.40;50.70
76263;DHT22;65080;50.908;6.916;2023-03-01T03:20:08;1.40;50.80
76263;DHT22;65080;50.908;6.916;2023-03-01T03:22:39;1.30;50.90
76263;DHT22;65080;50.908;6.916;2023-03-01T03:25:08;1.20;51.10
76263;DHT22;65080;50.908;6.916;2023-03-01T03:27:39;1.10;51.20
76263;DHT22;65080;50.908;6.916;2023-03-01T03:30:11;1.10;51.40
76263;DHT22;65080;50.908;6.916;2023-03-01T03:32:41;1.00;51.50
76263;DHT22;65080;50.908;6.916;2023-03-01T03:35:20;1.00;51.60
76263;DHT22;65080;50.908;6.916;2023-03-01T03:37:49;1.00;51.80
76263;DHT22;65080;50.908;6.916;2023-03-01T03:40:35;1.00;51.80
76263;DHT22;65080;50.908;6.916;2023-03-01T03:43:06;1.00;51.90
76263;DHT22;65080;50.908;6.916;2023-03-01T03:45:36;1.00;52.00
76263;DHT22;65080;50.908;6.916;2023-03-01T03:48:06;1.00;52.10
76263;DHT22;65080;50.908;6.916;2023-03-01T03:50:34;1.00;52.10
76263;DHT22;65080;50.908;6.916;2023-03-01T03:53:04;1.00;52.30
76263;DHT22;65080;50.908;6.916;2023-03-01T03:55:33;1.00;52.40
76263;DHT22;65080;50.908;6.916;2023-03-01T03:58:03;1.00;52.40
76263;DHT22;65080;50.908;6.916;2023-03-01T04:00:36;1.00;52.50
76263;DHT22;65080;50.908;6.916;2023-03-01T04:03:04;1.00;52.50
76263;DHT22;65080;50.908;6.916;2023-03-01T04:05:33;0.90;52.50
76263;DHT22;65080;50.908;6.916;2023-03-01T04:08:01;0.90;52.60
76263;DHT22;65080;50.908;6.916;2023-03-01T04:10:32;0.90;52.70
76263;DHT22;65080;50.908;6.916;2023-03-01T04:13:00;0.90;52.80
76263;DHT22;65080;50.908;6.916;2023-03-01T04:15:28;0.90;52.90
76263;DHT22;65080;50.908;6.916;2023-03-01T04:17:58;0.80;53.00
76263;DHT22;65080;50.908;6.916;2023-03-01T04:20:29;0.80;52.90
76263;DHT22;65080;50.908;6.916;2023-03-01T04:22:59;0.80;53.00
76263;DHT22;65080;50.908;6.916;2023-03-01T04:25:35;0.80;52.90
76263;DHT22;65080;50.908;6.916;2023-03-01T04:28:03;0.80;53.00
76263;DHT22;65080;50.908;6.916;2023-03-01T04:30:32;0.70;53.00
76263;DHT22;65080;50.908;6.916;2023-03-01T04:33:05;0.70;53.00
76263;DHT22;65080;50.908;6.916;2023-03-01T04:35:34;0.70;53.10
76263;DHT22;65080;50.908;6.916;2023-03-01T04:38:03;0.70;53.10
76263;DHT22;65080;50.908;6.916;2023-03-01T04:40:32;0.70;53.10
76263;DHT22;65080;50.908;6.916;2023-03-01T04:43:00;0.70;53.10
76263;DHT22;65080;50.908;6.916;2023-03-01T04:45:29;0.60;53.10
76263;DHT22;65080;50.908;6.916;2023-03-01T04:47:57;0.60;53.20
76263;DHT22;65080;50.908;6.916;2023-03-01T04:50:27;0.60;53.30
76263;DHT22;65080;50.908;6.916;2023-03-01T04:52:55;0.50;53.30
76263;DHT22;65080;50.908;6.916;2023-03-01T04:55:26;0.60;53.40
76263;DHT22;65080;50.908;6.916;2023-03-01T04:57:55;0.60;53.40
76263;DHT22;65080;50.908;6.916;2023-03-01T05:00:23;0.60;53.40
76263;DHT22;65080;50.908;6.916;2023-03-01T05:02:53;0.60;53.40
76263;DHT22;65080;50.908;6.916;2023-03-01T05:05:24;0.60;53.40
76263;DHT22;65080;50.908;6.916;2023-03-01T05:07:56;0.60;53.40
76263;DHT22;65080;50.908;6.916;2023-03-01T05:10:25;0.60;53.50
76263;DHT22;65080;50.908;6.916;2023-03-01T05:12:56;0.60;53.60
76263;DHT22;65080;50.908;6.916;2023-03-01T05:15:25;0.60;53.60
76263;DHT22;65080;50.908;6.916;2023-03-01T05:17:56;0.70;53.70
76263;DHT22;65080;50.908;6.916;2023-03-01T05:20:26;0.70;53.70
76263;DHT22;65080;50.908;6.916;2023-03-01T05:22:58;0.60;53.70
76263;DHT22;65080;50.908;6.916;2023-03-01T05:25:26;0.60;53.80
76263;DHT22;65080;50.908;6.916;2023-03-01T05:28:00;0.60;53.80
76263;DHT22;65080;50.908;6.916;2023-03-01T05:30:32;0.60;53.80
76263;DHT22;65080;50.908;6.916;2023-03-01T05:33:01;0.60;53.90
76263;DHT22;65080;50.908;6.916;2023-03-01T05:35:31;0.50;53.80
76263;DHT22;65080;50.908;6.916;2023-03-01T05:38:01;0.50;53.80
76263;DHT22;65080;50.908;6.916;2023-03-01T05:40:30;0.50;54.00
76263;DHT22;65080;50.908;6.916;2023-03-01T05:42:58;0.50;54.00
76263;DHT22;65080;50.908;6.916;2023-03-01T05:45:27;0.50;54.10
76263;DHT22;65080;50.908;6.916;2023-03-01T05:47:55;0.50;54.10
76263;DHT22;65080;50.908;6.916;2023-03-01T05:50:25;0.40;54.10
76263;DHT22;65080;50.908;6.916;2023-03-01T05:52:58;0.40;54.10
76263;DHT22;65080;50.908;6.916;2023-03-01T05:55:29;0.40;54.30
76263;DHT22;65080;50.908;6.916;2023-03-01T05:57:59;0.30;54.20
76263;DHT22;65080;50.908;6.916;2023-03-01T06:00:28;0.40;54.30
76263;DHT22;65080;50.908;6.916;2023-03-01T06:02:58;0.40;54.30
76263;DHT22;65080;50.908;6.916;2023-03-01T06:05:27;0.30;54.30
76263;DHT22;65080;50.908;6.916;2023-03-01T06:07:58;0.30;54.20
76263;DHT22;65080;50.908;6.916;2023-03-01T06:10:28;0.30;54.20
76263;DHT22;65080;50.908;6.916;2023-03-01T06:12:57;0.30;54.30
76263;DHT22;65080;50.908;6.916;2023-03-01T06:15:25;0.30;54.30
76263;DHT22;65080;50.908;6.916;2023-03-01T06:17:55;0.20;54.30
76263;DHT22;65080;50.908;6.916;2023-03-01T06:20:27;0.20;54.40
76263;DHT22;65080;50.908;6.916;2023-03-01T06:22:55;0.20;54.40
76263;DHT22;65080;50.908;6.916;2023-03-01T06:25:25;0.20;54.40
76263;DHT22;65080;50.908;6.916;2023-03-01T06:27:55;0.20;54.50
76263;DHT22;65080;50.908;6.916;2023-03-01T06:30:25;0.20;54.50
76263;DHT22;65080;50.908;6.916;2023-03-01T06:32:54;0.20;54.50
76263;DHT22;65080;50.908;6.916;2023-03-01T06:35:27;0.20;54.60
76263;DHT22;65080;50.908;6.916;2023-03-01T06:37:59;0.20;54.70
76263;DHT22;65080;50.908;6.916;2023-03-01T06:40:27;0.20;54.70
76263;DHT22;65080;50.908;6.916;2023-03-01T06:42:58;0.20;54.70
76263;DHT22;65080;50.908;6.916;2023-03-01T06:45:27;0.20;54.80
76263;DHT22;65080;50.908;6.916;2023-03-01T06:48:02;0.10;54.70
76263;DHT22;65080;50.908;6.916;2023-03-01T06:50:31;0.10;54.70
76263;DHT22;65080;50.908;6.916;2023-03-01T06:52:59;0.10;54.70
76263;DHT22;65080;50.908;6.916;2023-03-01T06:55:28;0.10;54.80
76263;DHT22;65080;50.908;6.916;2023-03-01T06:57:58;0.10;54.90
76263;DHT22;65080;50.908;6.916;2023-03-01T07:00:27;0.10;54.90
76263;DHT22;65080;50.908;6.916;2023-03-01T07:02:59;0.10;54.90
76263;DHT22;65080;50.908;6.916;2023-03-01T07:05:29;0.20;55.10
76263;DHT22;65080;50.908;6.916;2023-03-01T07:07:57;0.20;55.10
76263;DHT22;65080;50.908;6.916;2023-03-01T07:10:25;0.30;55.20
76263;DHT22;65080;50.908;6.916;2023-03-01T07:12:58;0.30;55.20
76263;DHT22;65080;50.908;6.916;2023-03-01T07:15:27;0.30;55.10
76263;DHT22;65080;50.908;6.916;2023-03-01T07:17:56;0.30;55.20
76263;DHT22;65080;50.908;6.916;2023-03-01T07:20:24;0.30;55.20
76263;DHT22;65080;50.908;6.916;2023-03-01T07:22:53;0.40;55.30
76263;DHT22;65080;50.908;6.916;2023-03-01T07:25:22;0.40;55.40
76263;DHT22;65080;50.908;6.916;2023-03-01T07:27:50;0.50;55.40
76263;DHT22;65080;50.908;6.916;2023-03-01T07:30:21;0.50;55.50
76263;DHT22;65080;50.908;6.916;2023-03-01T07:32:49;0.60;55.60
76263;DHT22;65080;50.908;6.916;2023-03-01T07:35:20;0.60;55.60
76263;DHT22;65080;50.908;6.916;2023-03-01T07:37:49;0.70;55.60
76263;DHT22;65080;50.908;6.916;2023-03-01T07:40:17;0.70;55.60
76263;DHT22;65080;50.908;6.916;2023-03-01T07:42:46;0.80;55.60
76263;DHT22;65080;50.908;6.916;2023-03-01T07:45:14;0.90;55.70
76263;DHT22;65080;50.908;6.916;2023-03-01T07:47:43;1.00;55.80
76263;DHT22;65080;50.908;6.916;2023-03-01T07:50:12;1.00;55.80
76263;DHT22;65080;50.908;6.916;2023-03-01T07:52:40;1.10;55.80
76263;DHT22;65080;50.908;6.916;2023-03-01T07:55:09;1.10;55.70
76263;DHT22;65080;50.908;6.916;2023-03-01T07:57:37;1.20;55.70
76263;DHT22;65080;50.908;6.916;2023-03-01T08:00:07;1.30;55.70
76263;DHT22;65080;50.908;6.916;2023-03-01T08:02:36;1.50;55.50
76263;DHT22;65080;50.908;6.916;2023-03-01T08:05:06;1.60;55.20
76263;DHT22;65080;50.908;6.916;2023-03-01T08:07:35;1.70;55.00
76263;DHT22;65080;50.908;6.916;2023-03-01T08:10:04;1.80;54.70
76263;DHT22;65080;50.908;6.916;2023-03-01T08:12:32;1.90;54.40
76263;DHT22;65080;50.908;6.916;2023-03-01T08:15:00;2.00;54.30
76263;DHT22;65080;50.908;6.916;2023-03-01T08:17:29;2.20;54.10
76263;DHT22;65080;50.908;6.916;2023-03-01T08:19:57;2.30;53.80
76263;DHT22;65080;50.908;6.916;2023-03-01T08:22:27;2.40;53.70
76263;DHT22;65080;50.908;6.916;2023-03-01T08:24:55;2.50;53.40
76263;DHT22;65080;50.908;6.916;2023-03-01T08:27:23;2.60;53.20
76263;DHT22;65080;50.908;6.916;2023-03-01T08:29:52;2.70;53.00
76263;DHT22;65080;50.908;6.916;2023-03-01T08:32:20;2.80;52.90
76263;DHT22;65080;50.908;6.916;2023-03-01T08:34:48;2.90;52.60
76263;DHT22;65080;50.908;6.916;2023-03-01T08:37:17;3.00;52.40
76263;DHT22;65080;50.908;6.916;2023-03-01T08:39:46;3.10;52.20
76263;DHT22;65080;50.908;6.916;2023-03-01T08:42:15;3.20;52.20
76263;DHT22;65080;50.908;6.916;2023-03-01T08:44:43;3.30;52.00
76263;DHT22;65080;50.908;6.916;2023-03-01T08:47:13;3.40;51.70
76263;DHT22;65080;50.908;6.916;2023-03-01T08:49:41;3.60;51.50
76263;DHT22;65080;50.908;6.916;2023-03-01T08:52:09;3.70;51.30
76263;DHT22;65080;50.908;6.916;2023-03-01T08:54:38;3.80;51.20
76263;DHT22;65080;50.908;6.916;2023-03-01T08:57:07;3.90;50.90
76263;DHT22;65080;50.908;6.916;2023-03-01T08:59:36;4.00;50.70
76263;DHT22;65080;50.908;6.916;2023-03-01T09:02:05;4.20;50.50
76263;DHT22;65080;50.908;6.916;2023-03-01T09:04:34;4.20;50.20
76263;DHT22;65080;50.908;6.916;2023-03-01T09:07:02;4.30;50.10
76263;DHT22;65080;50.908;6.916;2023-03-01T09:09:31;4.40;49.90
76263;DHT22;65080;50.908;6.916;2023-03-01T09:11:59;4.60;49.80
76263;DHT22;65080;50.908;6.916;2023-03-01T09:14:29;4.70;49.50
76263;DHT22;65080;50.908;6.916;2023-03-01T09:16:57;4.80;49.40
76263;DHT22;65080;50.908;6.916;2023-03-01T09:19:29;4.80;49.00
76263;DHT22;65080;50.908;6.916;2023-03-01T09:21:58;4.90;49.00
76263;DHT22;65080;50.908;6.916;2023-03-01T09:24:26;5.00;48.80
76263;DHT22;65080;50.908;6.916;2023-03-01T09:26:55;5.00;48.50
76263;DHT22;65080;50.908;6.916;2023-03-01T09:29:31;5.10;48.30
76263;DHT22;65080;50.908;6.916;2023-03-01T09:31:59;5.10;48.00
76263;DHT22;65080;50.908;6.916;2023-03-01T09:34:28;5.20;47.90
76263;DHT22;65080;50.908;6.916;2023-03-01T09:36:57;5.20;47.90
76263;DHT22;65080;50.908;6.916;2023-03-01T09:39:29;5.20;47.60
76263;DHT22;65080;50.908;6.916;2023-03-01T09:42:00;5.20;47.30
76263;DHT22;65080;50.908;6.916;2023-03-01T09:44:36;5.30;47.20
76263;DHT22;65080;50.908;6.916;2023-03-01T09:47:09;5.30;47.10
76263;DHT22;65080;50.908;6.916;2023-03-01T09:49:41;5.40;47.00
76263;DHT22;65080;50.908;6.916;2023-03-01T09:52:23;5.50;46.90
76263;DHT22;65080;50.908;6.916;2023-03-01T09:54:55;5.50;46.70
76263;DHT22;65080;50.908;6.916;2023-03-01T09:57:33;5.50;46.50
76263;DHT22;65080;50.908;6.916;2023-03-01T10:00:28;5.50;46.50
76263;DHT22;65080;50.908;6.916;2023-03-01T10:03:09;5.60;46.20
76263;DHT22;65080;50.908;6.916;2023-03-01T10:05:47;5.60;46.30
76263;DHT22;65080;50.908;6.916;2023-03-01T10:08:33;5.60;46.10
76263;DHT22;65080;50.908;6.916;2023-03-01T10:11:04;5.60;45.90
76263;DHT22;65080;50.908;6.916;2023-03-01T10:13:40;5.70;46.00
76263;DHT22;65080;50.908;6.916;2023-03-01T10:16:15;5.70;45.70
76263;DHT22;65080;50.908;6.916;2023-03-01T10:18:47;5.70;45.70
76263;DHT22;65080;50.908;6.916;2023-03-01T10:21:20;5.80;45.60
76263;DHT22;65080;50.908;6.916;2023-03-01T10:23:50;5.80;45.50
76263;DHT22;65080;50.908;6.916;2023-03-01T10:26:29;5.80;45.40
76263;DHT22;65080;50.908;6.916;2023-03-01T10:29:02;5.80;45.10
76263;DHT22;65080;50.908;6.916;2023-03-01T10:31:39;5.80;45.10
76263;DHT22;65080;50.908;6.916;2023-03-01T10:34:11;5.90;45.00
76263;DHT22;65080;50.908;6.916;2023-03-01T10:36:41;5.90;45.00
76263;DHT22;65080;50.908;6.916;2023-03-01T10:39:16;5.90;44.90
76263;DHT22;65080;50.908;6.916;2023-03-01T10:41:57;6.00;44.80
76263;DHT22;65080;50.908;6.916;2023-03-01T10:44:37;6.00;44.60
76263;DHT22;65080;50.908;6.916;2023-03-01T10:47:17;6.00;44.50
76263;DHT22;65080;50.908;6.916;2023-03-01T10:49:56;6.10;44.50
76263;DHT22;65080;50.908;6.916;2023-03-01T10:52:27;6.10;44.40
76263;DHT22;65080;50.908;6.916;2023-03-01T10:54:57;6.20;44.50
76263;DHT22;65080;50.908;6.916;2023-03-01T10:57:37;6.20;44.90
76263;DHT22;65080;50.908;6.916;2023-03-01T11:00:21;6.30;44.20
76263;DHT22;65080;50.908;6.916;2023-03-01T11:03:08;6.30;44.00
76263;DHT22;65080;50.908;6.916;2023-03-01T11:05:51;6.30;43.70
76263;DHT22;65080;50.908;6.916;2023-03-01T11:08:36;6.40;43.80
76263;DHT22;65080;50.908;6.916;2023-03-01T11:11:12;6.40;43.70
76263;DHT22;65080;50.908;6.916;2023-03-01T11:13:53;6.50;43.70
76263;DHT22;65080;50.908;6.916;2023-03-01T11:16:24;6.50;43.60
76263;DHT22;65080;50.908;6.916;2023-03-01T11:19:00;6.50;43.50
76263;DHT22;65080;50.908;6.916;2023-03-01T11:21:31;6.60;43.40
76263;DHT22;65080;50.908;6.916;2023-03-01T11:24:01;6.60;43.30
76263;DHT22;65080;50.908;6.916;2023-03-01T11:26:34;6.60;43.00
76263;DHT22;65080;50.908;6.916;2023-03-01T11:29:07;6.70;42.90
76263;DHT22;65080;50.908;6.916;2023-03-01T11:31:40;6.70;42.80
76263;DHT22;65080;50.908;6.916;2023-03-01T11:34:36;6.70;42.70
76263;DHT22;65080;50.908;6.916;2023-03-01T11:37:13;6.80;42.70
76263;DHT22;65080;50.908;6.916;2023-03-01T11:39:49;6.80;42.40
76263;DHT22;65080;50.908;6.916;2023-03-01T11:42:20;6.90;42.40
76263;DHT22;65080;50.908;6.916;2023-03-01T11:44:55;7.00;42.30
76263;DHT22;65080;50.908;6.916;2023-03-01T11:47:38;7.00;42.20
76263;DHT22;65080;50.908;6.916;2023-03-01T11:50:26;7.00;42.00
76263;DHT22;65080;50.908;6.916;2023-03-01T11:53:07;7.10;42.10
76263;DHT22;65080;50.908;6.916;2023-03-01T11:55:51;7.10;42.00
76263;DHT22;65080;50.908;6.916;2023-03-01T11:58:35;7.20;41.80
76263;DHT22;65080;50.908;6.916;2023-03-01T12:01:16;7.30;41.80
76263;DHT22;65080;50.908;6.916;2023-03-01T12:04:18;7.30;41.60
76263;DHT22;65080;50.908;6.916;2023-03-01T12:06:56;7.30;41.20
76263;DHT22;65080;50.908;6.916;2023-03-01T12:09:36;7.40;41.40
76263;DHT22;65080;50.908;6.916;2023-03-01T12:12:25;7.40;41.20
76263;DHT22;65080;50.908;6.916;2023-03-01T12:18:19;7.40;40.80
76263;DHT22;65080;50.908;6.916;2023-03-01T12:21:01;7.40;41.00
76263;DHT22;65080;50.908;6.916;2023-03-01T12:23:56;7.50;41.00
76263;DHT22;65080;50.908;6.916;2023-03-01T12:26:30;7.50;40.80
76263;DHT22;65080;50.908;6.916;2023-03-01T12:29:15;7.60;40.80
76263;DHT22;65080;50.908;6.916;2023-03-01T12:32:08;7.60;40.60
76263;DHT22;65080;50.908;6.916;2023-03-01T12:37:54;7.70;40.50
76263;DHT22;65080;50.908;6.916;2023-03-01T12:40:43;7.70;40.50
76263;DHT22;65080;50.908;6.916;2023-03-01T12:43:43;7.70;40.40
76263;DHT22;65080;50.908;6.916;2023-03-01T12:46:25;7.70;40.40
76263;DHT22;65080;50.908;6.916;2023-03-01T12:49:04;7.70;40.30
76263;DHT22;65080;50.908;6.916;2023-03-01T12:51:36;7.80;40.40
76263;DHT22;65080;50.908;6.916;2023-03-01T12:54:16;7.90;40.40
76263;DHT22;65080;50.908;6.916;2023-03-01T12:56:53;7.90;40.00
76263;DHT22;65080;50.908;6.916;2023-03-01T12:59:28;7.90;39.90
76263;DHT22;65080;50.908;6.916;2023-03-01T13:02:12;8.00;40.00
76263;DHT22;65080;50.908;6.916;2023-03-01T13:05:51;8.10;40.00
76263;DHT22;65080;50.908;6.916;2023-03-01T13:09:20;8.20;39.90
76263;DHT22;65080;50.908;6.916;2023-03-01T13:12:04;8.20;40.00
76263;DHT22;65080;50.908;6.916;2023-03-01T13:15:25;8.40;40.00
76263;DHT22;65080;50.908;6.916;2023-03-01T13:21:31;8.60;39.80
76263;DHT22;65080;50.908;6.916;2023-03-01T13:24:41;8.80;39.50
76263;DHT22;65080;50.908;6.916;2023-03-01T13:27:22;8.80;39.20
76263;DHT22;65080;50.908;6.916;2023-03-01T13:29:56;8.90;39.20
76263;DHT22;65080;50.908;6.916;2023-03-01T13:32:39;8.90;39.10
76263;DHT22;65080;50.908;6.916;2023-03-01T13:38:55;9.10;38.70
76263;DHT22;65080;50.908;6.916;2023-03-01T13:46:11;9.30;38.80
76263;DHT22;65080;50.908;6.916;2023-03-01T13:54:04;9.90;38.50
76263;DHT22;65080;50.908;6.916;2023-03-01T13:57:04;10.40;38.30
76263;DHT22;65080;50.908;6.916;2023-03-01T14:00:58;10.70;38.10
76263;DHT22;65080;50.908;6.916;2023-03-01T14:03:41;11.20;37.00
76263;DHT22;65080;50.908;6.916;2023-03-01T14:06:14;11.60;37.20
76263;DHT22;65080;50.908;6.916;2023-03-01T14:08:52;11.90;36.90
76263;DHT22;65080;50.908;6.916;2023-03-01T14:20:12;13.30;34.80
76263;DHT22;65080;50.908;6.916;2023-03-01T14:22:42;13.50;34.50
76263;DHT22;65080;50.908;6.916;2023-03-01T14:25:23;13.80;34.40
76263;DHT22;65080;50.908;6.916;2023-03-01T14:27:55;14.00;33.60
76263;DHT22;65080;50.908;6.916;2023-03-01T14:30:26;14.20;33.40
76263;DHT22;65080;50.908;6.916;2023-03-01T14:32:56;14.50;33.20
76263;DHT22;65080;50.908;6.916;2023-03-01T14:35:28;14.70;32.70
76263;DHT22;65080;50.908;6.916;2023-03-01T14:37:57;14.90;32.10
76263;DHT22;65080;50.908;6.916;2023-03-01T14:40:27;15.10;31.70
76263;DHT22;65080;50.908;6.916;2023-03-01T14:42:58;15.30;31.90
76263;DHT22;65080;50.908;6.916;2023-03-01T14:45:28;15.50;31.00
76263;DHT22;65080;50.908;6.916;2023-03-01T14:48:00;15.60;30.70
76263;DHT22;65080;50.908;6.916;2023-03-01T14:50:31;15.70;30.40
76263;DHT22;65080;50.908;6.916;2023-03-01T14:53:02;15.80;30.20
76263;DHT22;65080;50.908;6.916;2023-03-01T14:55:33;15.80;30.20
76263;DHT22;65080;50.908;6.916;2023-03-01T14:58:04;15.90;30.30
76263;DHT22;65080;50.908;6.916;2023-03-01T15:00:34;16.00;30.30
76263;DHT22;65080;50.908;6.916;2023-03-01T15:03:07;16.00;30.10
76263;DHT22;65080;50.908;6.916;2023-03-01T15:05:43;16.00;30.20
76263;DHT22;65080;50.908;6.916;2023-03-01T15:08:17;16.00;30.30
76263;DHT22;65080;50.908;6.916;2023-03-01T15:10:57;16.00;30.30
76263;DHT22;65080;50.908;6.916;2023-03-01T15:13:28;16.10;30.20
76263;DHT22;65080;50.908;6.916;2023-03-01T15:16:04;16.10;30.50
76263;DHT22;65080;50.908;6.916;2023-03-01T15:18:34;16.20;30.30
76263;DHT22;65080;50.908;6.916;2023-03-01T15:21:08;16.30;30.50
76263;DHT22;65080;50.908;6.916;2023-03-01T15:23:38;16.30;30.00
76263;DHT22;65080;50.908;6.916;2023-03-01T15:26:23;16.30;30.10
76263;DHT22;65080;50.908;6.916;2023-03-01T15:28:52;16.30;29.80
76263;DHT22;65080;50.908;6.916;2023-03-01T15:31:27;16.20;30.00
76263;DHT22;65080;50.908;6.916;2023-03-01T15:34:10;16.20;30.00
76263;DHT22;65080;50.908;6.916;2023-03-01T15:36:43;16.20;29.70
76263;DHT22;65080;50.908;6.916;2023-03-01T15:39:32;16.30;29.80
76263;DHT22;65080;50.908;6.916;2023-03-01T15:42:06;16.20;29.50
76263;DHT22;65080;50.908;6.916;2023-03-01T15:44:35;16.00;29.70
76263;DHT22;65080;50.908;6.916;2023-03-01T15:47:26;15.90;29.80
76263;DHT22;65080;50.908;6.916;2023-03-01T15:49:55;15.80;29.70
76263;DHT22;65080;50.908;6.916;2023-03-01T15:52:27;15.80;29.90
76263;DHT22;65080;50.908;6.916;2023-03-01T15:54:58;15.80;29.80
76263;DHT22;65080;50.908;6.916;2023-03-01T15:57:27;15.80;29.90
76263;DHT22;65080;50.908;6.916;2023-03-01T15:59:55;15.60;29.80
76263;DHT22;65080;50.908;6.916;2023-03-01T16:02:24;15.20;29.80
76263;DHT22;65080;50.908;6.916;2023-03-01T16:04:52;14.70;29.90
76263;DHT22;65080;50.908;6.916;2023-03-01T16:07:23;14.30;30.10
76263;DHT22;65080;50.908;6.916;2023-03-01T16:09:55;13.70;30.30
76263;DHT22;65080;50.908;6.916;2023-03-01T16:12:23;13.40;30.50
76263;DHT22;65080;50.908;6.916;2023-03-01T16:14:52;13.00;30.60
76263;DHT22;65080;50.908;6.916;2023-03-01T16:17:20;12.60;30.60
76263;DHT22;65080;50.908;6.916;2023-03-01T16:19:49;12.30;30.70
76263;DHT22;65080;50.908;6.916;2023-03-01T16:22:17;12.00;30.90
76263;DHT22;65080;50.908;6.916;2023-03-01T16:24:51;11.70;31.10
76263;DHT22;65080;50.908;6.916;2023-03-01T16:27:21;11.40;31.30
76263;DHT22;65080;50.908;6.916;2023-03-01T16:29:49;11.20;31.70
76263;DHT22;65080;50.908;6.916;2023-03-01T16:32:17;11.00;31.80
76263;DHT22;65080;50.908;6.916;2023-03-01T16:34:46;10.80;32.10
76263;DHT22;65080;50.908;6.916;2023-03-01T16:37:16;10.60;32.20
76263;DHT22;65080;50.908;6.916;2023-03-01T16:39:45;10.40;32.40
76263;DHT22;65080;50.908;6.916;2023-03-01T16:42:16;10.30;32.60
76263;DHT22;65080;50.908;6.916;2023-03-01T16:44:45;10.10;32.80
76263;DHT22;65080;50.908;6.916;2023-03-01T16:47:14;10.00;33.00
76263;DHT22;65080;50.908;6.916;2023-03-01T16:49:42;9.90;34.10
76263;DHT22;65080;50.908;6.916;2023-03-01T16:52:10;9.80;34.20